createdAt,value
2019-04-30T00:01:20.374Z,33.60
2019-04-30T00:03:55.880Z,32.45
2019-04-30T00:06:27.401Z,38.50
2019-04-30T00:08:57.667Z,38.15
2019-04-30T00:11:26.819Z,36.08
2019-04-30T00:13:58.901Z,37.08
2019-04-30T00:16:31.060Z,37.45
2019-04-30T00:19:00.675Z,36.55
2019-04-30T00:21:28.594Z,30.57
2019-04-30T00:24:00.823Z,35.10
2019-04-30T00:26:28.648Z,33.92
2019-04-30T00:28:57.796Z,33.13
2019-04-30T00:31:27.594Z,30.27
2019-04-30T00:34:01.147Z,117.17
2019-04-30T00:36:34.089Z,36.38
2019-04-30T00:38:58.627Z,33.13
2019-04-30T00:41:30.174Z,34.23
2019-04-30T00:43:58.625Z,36.25
2019-04-30T00:46:29.442Z,33.98
2019-04-30T00:49:08.709Z,34.00
2019-04-30T00:51:29.704Z,37.20
2019-04-30T00:53:58.841Z,35.70
2019-04-30T00:56:28.332Z,34.18
2019-04-30T00:59:02.304Z,32.48
2019-04-30T01:01:43.500Z,33.05
2019-04-30T01:04:19.334Z,38.38
2019-04-30T01:06:48.825Z,36.88
2019-04-30T01:09:17.960Z,35.45
2019-04-30T01:11:48.158Z,36.20
2019-04-30T01:14:18.876Z,35.83
2019-04-30T01:16:49.411Z,35.08
2019-04-30T01:19:29.135Z,34.23
2019-04-30T01:21:50.904Z,34.43
2019-04-30T01:24:23.369Z,32.98
2019-04-30T01:26:51.191Z,31.33
2019-04-30T01:29:20.331Z,32.73
2019-04-30T01:31:49.531Z,34.60
2019-04-30T01:34:19.564Z,32.50
2019-04-30T01:36:52.227Z,33.38
2019-04-30T01:39:23.666Z,31.10
2019-04-30T01:41:50.750Z,32.95
2019-04-30T01:44:19.932Z,34.55
2019-04-30T01:46:51.712Z,32.67
2019-04-30T01:49:20.289Z,32.60
2019-04-30T01:51:52.878Z,31.50
2019-04-30T01:54:24.331Z,30.35
2019-04-30T01:57:10.750Z,32.00
2019-04-30T01:59:58.310Z,30.72
2019-04-30T02:02:30.338Z,32.20
2019-04-30T02:04:59.482Z,32.30
2019-04-30T02:07:28.894Z,35.78
2019-04-30T02:09:58.758Z,34.90
2019-04-30T02:12:29.682Z,32.65
2019-04-30T02:14:59.658Z,34.90
2019-04-30T02:17:29.324Z,35.58
2019-04-30T02:19:59.275Z,29.07
2019-04-30T02:22:31.255Z,29.77
2019-04-30T02:24:59.849Z,31.15
2019-04-30T02:27:29.415Z,33.60
2019-04-30T02:29:59.479Z,29.98
2019-04-30T02:32:30.523Z,31.35
2019-04-30T02:35:01.870Z,32.38
2019-04-30T02:37:40.416Z,28.42
2019-04-30T02:40:10.363Z,28.32
2019-04-30T02:42:39.848Z,33.00
2019-04-30T02:45:10.280Z,29.30
2019-04-30T02:47:40.059Z,27.77
2019-04-30T02:50:15.537Z,29.23
2019-04-30T02:52:40.293Z,30.50
2019-04-30T02:55:13.107Z,27.85
2019-04-30T02:57:42.247Z,31.57
2019-04-30T03:00:15.675Z,27.85
2019-04-30T03:02:44.882Z,26.85
2019-04-30T03:05:14.130Z,28.50
2019-04-30T03:07:43.697Z,27.13
2019-04-30T03:10:12.846Z,29.40
2019-04-30T03:12:41.986Z,25.68
2019-04-30T03:15:11.159Z,27.15
2019-04-30T03:17:44.904Z,25.17
2019-04-30T03:20:31.825Z,27.00
2019-04-30T03:22:51.220Z,25.75
2019-04-30T03:25:20.440Z,29.35
2019-04-30T03:27:49.895Z,29.95
2019-04-30T03:30:21.963Z,29.50
2019-04-30T03:32:56.630Z,27.07
2019-04-30T03:35:23.085Z,27.55
2019-04-30T03:37:52.759Z,26.57
2019-04-30T03:40:21.914Z,30.75
2019-04-30T03:42:51.100Z,27.93
2019-04-30T03:45:20.611Z,31.97
2019-04-30T03:47:50.638Z,27.60
2019-04-30T03:50:20.060Z,30.32
2019-04-30T03:52:50.346Z,27.30
2019-04-30T03:55:20.534Z,26.45
2019-04-30T03:57:51.951Z,29.37
2019-04-30T04:00:26.090Z,26.48
2019-04-30T04:02:55.224Z,26.75
2019-04-30T04:05:26.008Z,25.45
2019-04-30T04:08:02.801Z,28.27
2019-04-30T04:10:40.348Z,26.25
2019-04-30T04:13:10.387Z,25.05
2019-04-30T04:15:40.217Z,29.75
2019-04-30T04:18:10.622Z,27.02
2019-04-30T04:20:42.945Z,25.50
2019-04-30T04:23:11.183Z,26.12
2019-04-30T04:25:40.546Z,25.97
2019-04-30T04:28:10.181Z,26.23
2019-04-30T04:30:42.827Z,25.80
2019-04-30T04:33:10.583Z,25.57
2019-04-30T04:35:39.720Z,22.30
2019-04-30T04:38:12.305Z,25.40
2019-04-30T04:40:40.115Z,23.50
2019-04-30T04:43:10.377Z,22.65
2019-04-30T04:45:43.500Z,23.77
2019-04-30T04:48:10.709Z,24.30
2019-04-30T04:50:40.177Z,24.25
2019-04-30T04:53:11.510Z,23.10
2019-04-30T04:55:40.376Z,27.15
2019-04-30T04:58:12.704Z,25.55
2019-04-30T05:00:40.413Z,27.17
2019-04-30T05:03:14.103Z,25.35
2019-04-30T05:05:43.257Z,24.12
2019-04-30T05:08:12.390Z,22.27
2019-04-30T05:10:41.530Z,25.02
2019-04-30T05:13:10.686Z,29.67
2019-04-30T05:15:39.836Z,22.40
2019-04-30T05:18:09.236Z,23.40
2019-04-30T05:20:41.555Z,21.05
2019-04-30T05:23:09.567Z,23.25
2019-04-30T05:25:39.088Z,25.62
2019-04-30T05:28:08.759Z,25.92
2019-04-30T05:30:39.310Z,24.18
2019-04-30T05:33:08.944Z,27.80
2019-04-30T05:35:38.866Z,23.10
2019-04-30T05:38:09.352Z,24.85
2019-04-30T05:40:39.793Z,23.92
2019-04-30T05:43:11.379Z,23.25
2019-04-30T05:45:40.549Z,22.42
2019-04-30T05:48:09.692Z,21.45
2019-04-30T05:50:39.195Z,20.50
2019-04-30T05:53:09.068Z,22.77
2019-04-30T05:55:39.477Z,25.50
2019-04-30T05:58:09.358Z,22.87
2019-04-30T06:00:39.964Z,23.07
2019-04-30T06:03:09.629Z,23.00
2019-04-30T06:05:39.373Z,19.57
2019-04-30T06:08:09.374Z,20.50
2019-04-30T06:10:59.715Z,21.17
2019-04-30T06:13:32.002Z,23.60
2019-04-30T06:16:05.300Z,23.22
2019-04-30T06:18:34.433Z,18.73
2019-04-30T06:21:03.789Z,17.90
2019-04-30T06:23:32.938Z,16.40
2019-04-30T06:26:09.605Z,23.73
2019-04-30T06:28:32.964Z,19.75
2019-04-30T06:31:02.093Z,24.45
2019-04-30T06:33:31.280Z,19.82
2019-04-30T06:36:00.882Z,20.00
2019-04-30T06:38:30.025Z,18.02
2019-04-30T06:40:59.198Z,19.67
2019-04-30T06:43:28.833Z,19.82
2019-04-30T06:45:58.970Z,20.70
2019-04-30T06:48:29.525Z,19.67
2019-04-30T06:50:59.725Z,17.23
2019-04-30T06:53:29.380Z,22.52
2019-04-30T06:55:59.098Z,19.37
2019-04-30T06:58:29.201Z,16.25
2019-04-30T07:00:59.574Z,18.42
2019-04-30T07:03:29.174Z,15.10
2019-04-30T07:05:58.770Z,13.85
2019-04-30T07:08:39.577Z,20.77
2019-04-30T07:11:20.071Z,16.55
2019-04-30T07:13:52.248Z,15.00
2019-04-30T07:16:21.357Z,16.82
2019-04-30T07:18:50.531Z,17.87
2019-04-30T07:21:20.068Z,16.80
2019-04-30T07:23:49.469Z,18.92
2019-04-30T07:26:23.298Z,19.30
2019-04-30T07:28:54.776Z,20.57
2019-04-30T07:31:20.348Z,17.02
2019-04-30T07:33:53.014Z,21.75
2019-04-30T07:36:20.369Z,16.67
2019-04-30T07:38:54.192Z,14.90
2019-04-30T07:41:20.376Z,13.62
2019-04-30T07:43:49.673Z,14.95
2019-04-30T07:46:19.944Z,15.95
2019-04-30T07:48:50.168Z,15.80
2019-04-30T07:51:21.171Z,25.92
2019-04-30T07:53:50.697Z,14.45
2019-04-30T07:56:27.842Z,16.15
2019-04-30T07:58:51.594Z,16.05
2019-04-30T08:01:20.766Z,15.58
2019-04-30T08:04:08.836Z,13.70
2019-04-30T08:09:10.514Z,20.52
2019-04-30T08:11:43.519Z,13.03
2019-04-30T08:14:10.780Z,14.45
2019-04-30T08:16:39.915Z,12.13
2019-04-30T08:19:09.169Z,15.25
2019-04-30T08:21:38.833Z,16.15
2019-04-30T08:24:09.238Z,14.10
2019-04-30T08:26:39.738Z,17.37
2019-04-30T08:29:09.581Z,17.27
2019-04-30T08:31:40.898Z,18.48
2019-04-30T08:34:10.933Z,18.23
2019-04-30T08:36:40.555Z,15.55
2019-04-30T08:39:09.847Z,18.92
2019-04-30T08:41:39.291Z,14.95
2019-04-30T08:44:09.493Z,19.57
2019-04-30T08:46:38.848Z,16.10
2019-04-30T08:49:09.819Z,12.15
2019-04-30T08:51:39.465Z,15.50
2019-04-30T08:54:09.625Z,16.93
2019-04-30T08:56:39.011Z,18.45
2019-04-30T08:59:08.738Z,15.48
2019-04-30T09:01:39.224Z,18.25
2019-04-30T09:04:10.366Z,13.70
2019-04-30T09:06:39.735Z,15.25
2019-04-30T09:09:11.239Z,20.32
2019-04-30T09:11:52.420Z,14.80
2019-04-30T09:14:11.508Z,15.58
2019-04-30T09:16:40.681Z,12.25
2019-04-30T09:19:09.825Z,18.35
2019-04-30T09:21:40.237Z,16.02
2019-04-30T09:24:09.665Z,15.05
2019-04-30T09:26:39.211Z,15.48
2019-04-30T09:29:09.350Z,12.93
2019-04-30T09:31:40.801Z,11.93
2019-04-30T09:34:17.008Z,18.82
2019-04-30T09:36:40.836Z,17.10
2019-04-30T09:39:10.037Z,14.35
2019-04-30T09:41:40.972Z,14.05
2019-04-30T09:44:10.129Z,12.15
2019-04-30T09:46:39.294Z,12.98
2019-04-30T09:49:09.658Z,15.78
2019-04-30T09:51:39.791Z,11.45
2019-04-30T09:54:12.432Z,15.95
2019-04-30T09:56:40.392Z,14.68
2019-04-30T09:59:09.534Z,14.60
2019-04-30T10:01:38.739Z,14.03
2019-04-30T10:04:10.152Z,15.58
2019-04-30T10:06:40.367Z,14.18
2019-04-30T10:09:11.279Z,10.65
2019-04-30T10:11:45.084Z,14.85
2019-04-30T10:14:14.259Z,17.67
2019-04-30T10:16:45.039Z,15.05
2019-04-30T10:19:15.051Z,15.45
2019-04-30T10:21:44.616Z,19.20
2019-04-30T10:24:15.754Z,18.90
2019-04-30T10:26:44.667Z,13.35
2019-04-30T10:29:13.834Z,14.28
2019-04-30T10:31:43.198Z,20.62
2019-04-30T10:34:12.404Z,17.20
2019-04-30T10:36:41.691Z,12.73
2019-04-30T10:39:11.001Z,18.77
2019-04-30T10:41:40.189Z,13.48
2019-04-30T10:44:09.339Z,19.32
2019-04-30T10:46:38.559Z,13.15
2019-04-30T10:49:09.085Z,15.13
2019-04-30T10:51:38.899Z,13.35
2019-04-30T10:54:08.821Z,15.40
2019-04-30T10:56:38.287Z,14.50
2019-04-30T10:59:07.660Z,16.95
2019-04-30T11:01:36.922Z,19.98
2019-04-30T11:04:10.552Z,13.98
2019-04-30T11:06:44.531Z,16.07
2019-04-30T11:09:13.691Z,12.58
2019-04-30T11:11:42.832Z,13.70
2019-04-30T11:14:11.996Z,17.17
2019-04-30T11:16:41.134Z,14.60
2019-04-30T11:19:10.457Z,16.30
2019-04-30T11:21:40.105Z,15.05
2019-04-30T11:24:10.104Z,12.43
2019-04-30T11:26:40.629Z,12.88
2019-04-30T11:29:10.554Z,15.65
2019-04-30T11:31:41.705Z,14.50
2019-04-30T11:34:11.209Z,10.45
2019-04-30T11:36:40.432Z,15.00
2019-04-30T11:39:11.903Z,13.25
2019-04-30T11:41:41.033Z,16.87
2019-04-30T11:44:10.357Z,15.32
2019-04-30T11:46:59.742Z,11.48
2019-04-30T11:49:29.252Z,16.73
2019-04-30T11:51:58.391Z,13.43
2019-04-30T11:54:27.529Z,16.00
2019-04-30T11:56:58.665Z,12.90
2019-04-30T11:59:29.621Z,16.87
2019-04-30T12:02:00.074Z,11.60
2019-04-30T12:04:29.876Z,14.65
2019-04-30T12:07:00.904Z,14.60
2019-04-30T12:09:40.611Z,15.72
2019-04-30T12:12:09.772Z,14.10
2019-04-30T12:14:39.566Z,15.83
2019-04-30T12:17:08.730Z,14.65
2019-04-30T12:19:38.843Z,16.32
2019-04-30T12:22:08.274Z,13.15
2019-04-30T12:24:38.844Z,18.75
2019-04-30T12:27:08.068Z,23.50
2019-04-30T12:29:37.223Z,46.45
2019-04-30T12:32:06.374Z,34.65
2019-04-30T12:34:35.546Z,50.95
2019-04-30T12:37:05.347Z,51.28
2019-04-30T12:39:34.488Z,56.70
2019-04-30T12:42:03.639Z,38.23
2019-04-30T12:44:32.787Z,52.90
2019-04-30T12:47:02.059Z,93.67
2019-04-30T12:49:32.855Z,51.33
2019-04-30T12:52:12.387Z,38.08
2019-04-30T12:54:45.753Z,27.48
2019-04-30T12:57:16.655Z,20.97
2019-04-30T12:59:45.805Z,14.78
2019-04-30T13:02:15.071Z,15.90
2019-04-30T13:04:44.218Z,12.70
2019-04-30T13:07:13.905Z,14.23
2019-04-30T13:09:44.131Z,14.95
2019-04-30T13:12:14.898Z,14.05
2019-04-30T13:14:51.655Z,14.23
2019-04-30T13:17:15.347Z,11.95
2019-04-30T13:19:44.895Z,14.78
2019-04-30T13:22:14.052Z,12.85
2019-04-30T13:24:43.449Z,18.67
2019-04-30T13:27:12.595Z,13.75
2019-04-30T13:29:45.822Z,13.00
2019-04-30T13:32:27.301Z,18.95
2019-04-30T13:34:47.527Z,16.48
2019-04-30T13:37:16.635Z,13.78
2019-04-30T13:40:03.485Z,15.50
2019-04-30T13:42:38.962Z,16.80
2019-04-30T13:45:08.924Z,12.98
2019-04-30T13:47:39.072Z,12.55
2019-04-30T13:50:09.417Z,11.78
2019-04-30T13:52:39.045Z,11.93
2019-04-30T13:55:10.749Z,12.88
2019-04-30T13:57:39.446Z,10.23
2019-04-30T14:00:12.540Z,13.88
2019-04-30T14:02:52.240Z,11.25
2019-04-30T14:05:21.389Z,15.65
2019-04-30T14:07:59.855Z,14.63
2019-04-30T14:10:30.883Z,11.05
2019-04-30T14:13:01.590Z,17.25
2019-04-30T14:15:30.748Z,12.85
2019-04-30T14:17:59.894Z,14.78
2019-04-30T14:20:29.032Z,14.73
2019-04-30T14:22:58.212Z,13.55
2019-04-30T14:25:27.352Z,12.13
2019-04-30T14:27:56.533Z,11.73
2019-04-30T14:30:25.697Z,12.65
2019-04-30T14:32:54.834Z,11.75
2019-04-30T14:35:23.986Z,11.93
2019-04-30T14:37:53.154Z,13.88
2019-04-30T14:40:22.975Z,11.28
2019-04-30T14:42:54.558Z,13.95
2019-04-30T14:45:25.778Z,16.77
2019-04-30T14:48:01.203Z,13.68
2019-04-30T14:50:34.632Z,13.25
2019-04-30T14:53:08.523Z,10.50
2019-04-30T14:55:55.681Z,10.68
2019-04-30T14:58:42.629Z,15.13
2019-04-30T15:01:13.459Z,13.32
2019-04-30T15:03:42.897Z,14.80
2019-04-30T15:06:12.189Z,13.85
2019-04-30T15:08:41.342Z,12.30
2019-04-30T15:11:10.797Z,11.97
2019-04-30T15:13:39.952Z,15.55
2019-04-30T15:16:09.095Z,12.40
2019-04-30T15:18:57.695Z,10.40
2019-04-30T15:21:26.903Z,11.65
2019-04-30T15:24:09.687Z,11.57
2019-04-30T15:26:41.237Z,9.85
2019-04-30T15:29:13.352Z,14.58
2019-04-30T15:31:42.602Z,16.15
2019-04-30T15:34:13.259Z,11.83
2019-04-30T15:36:42.400Z,12.50
2019-04-30T15:39:25.211Z,10.95
2019-04-30T15:41:54.403Z,11.68
2019-04-30T15:44:23.626Z,11.73
2019-04-30T15:46:52.871Z,9.85
2019-04-30T15:49:22.046Z,10.08
2019-04-30T15:51:51.508Z,11.43
2019-04-30T15:54:20.994Z,11.48
2019-04-30T15:56:50.350Z,12.28
2019-04-30T15:59:30.275Z,11.78
2019-04-30T16:02:01.240Z,10.90
2019-04-30T16:04:32.019Z,12.30
2019-04-30T16:07:01.174Z,10.08
2019-04-30T16:09:41.134Z,9.50
2019-04-30T16:12:21.102Z,10.78
2019-04-30T16:14:50.238Z,12.82
2019-04-30T16:17:23.761Z,14.28
2019-04-30T16:19:53.000Z,11.15
2019-04-30T16:22:22.408Z,12.58
2019-04-30T16:24:54.708Z,10.65
2019-04-30T16:27:24.688Z,12.40
2019-04-30T16:29:53.862Z,11.15
2019-04-30T16:32:24.276Z,9.85
2019-04-30T16:34:53.488Z,10.32
2019-04-30T16:37:22.745Z,12.78
2019-04-30T16:39:51.878Z,12.28
2019-04-30T16:42:21.023Z,8.70
2019-04-30T16:44:50.178Z,11.28
2019-04-30T16:47:20.019Z,9.55
2019-04-30T16:49:49.432Z,12.70
2019-04-30T16:52:19.005Z,10.00
2019-04-30T16:54:49.709Z,9.90
2019-04-30T16:57:19.066Z,8.18
2019-04-30T16:59:49.960Z,15.38
2019-04-30T17:02:19.585Z,15.32
2019-04-30T17:04:50.379Z,11.30
2019-04-30T17:07:30.542Z,11.05
2019-04-30T17:10:09.031Z,12.80
2019-04-30T17:12:59.297Z,12.18
2019-04-30T17:15:31.962Z,9.63
2019-04-30T17:18:01.118Z,12.33
2019-04-30T17:20:30.258Z,11.90
2019-04-30T17:22:59.668Z,13.58
2019-04-30T17:25:28.935Z,12.70
2019-04-30T17:28:01.076Z,13.88
2019-04-30T17:30:29.439Z,10.53
2019-04-30T17:32:59.851Z,16.55
2019-04-30T17:35:29.163Z,14.70
2019-04-30T17:37:58.298Z,10.75
2019-04-30T17:40:29.144Z,14.33
2019-04-30T17:42:58.335Z,10.20
2019-04-30T17:45:29.178Z,11.08
2019-04-30T17:47:58.535Z,12.40
2019-04-30T17:50:29.285Z,13.00
2019-04-30T17:53:00.524Z,11.97
2019-04-30T17:55:29.406Z,14.10
2019-04-30T17:57:58.644Z,14.55
2019-04-30T18:00:29.410Z,11.53
2019-04-30T18:02:58.921Z,11.08
2019-04-30T18:05:29.260Z,10.10
2019-04-30T18:07:58.735Z,10.45
2019-04-30T18:10:28.666Z,11.40
2019-04-30T18:12:57.813Z,12.30
2019-04-30T18:15:28.799Z,13.32
2019-04-30T18:18:05.385Z,11.33
2019-04-30T18:20:39.229Z,11.75
2019-04-30T18:23:26.525Z,13.08
2019-04-30T18:25:57.303Z,11.63
2019-04-30T18:28:26.613Z,14.18
2019-04-30T18:30:55.758Z,10.35
2019-04-30T18:33:25.080Z,11.73
2019-04-30T18:35:54.668Z,12.13
2019-04-30T18:38:23.807Z,16.50
2019-04-30T18:40:52.989Z,11.22
2019-04-30T18:43:22.160Z,15.30
2019-04-30T18:45:51.327Z,14.78
2019-04-30T18:48:20.466Z,14.15
2019-04-30T18:50:49.602Z,14.93
2019-04-30T18:53:20.403Z,15.53
2019-04-30T18:55:50.762Z,11.95
2019-04-30T18:58:20.195Z,14.75
2019-04-30T19:00:51.560Z,17.87
2019-04-30T19:03:21.899Z,16.52
2019-04-30T19:05:53.200Z,19.87
2019-04-30T19:08:32.787Z,18.98
2019-04-30T19:11:19.838Z,15.93
2019-04-30T19:14:09.597Z,17.10
2019-04-30T19:16:56.812Z,15.40
2019-04-30T19:19:29.485Z,14.80
2019-04-30T19:21:59.116Z,18.05
2019-04-30T19:24:28.265Z,16.93
2019-04-30T19:26:58.661Z,16.93
2019-04-30T19:29:28.453Z,17.02
2019-04-30T19:31:59.340Z,21.40
2019-04-30T19:34:31.530Z,18.87
2019-04-30T19:36:59.797Z,19.42
2019-04-30T19:39:29.304Z,16.82
2019-04-30T19:42:00.980Z,18.40
2019-04-30T19:44:29.497Z,19.55
2019-04-30T19:46:58.687Z,19.95
2019-04-30T19:49:27.821Z,20.43
2019-04-30T19:52:06.114Z,23.12
2019-04-30T19:54:29.378Z,25.68
2019-04-30T19:56:58.888Z,17.77
2019-04-30T19:59:29.414Z,22.27
2019-04-30T20:01:59.536Z,17.80
2019-04-30T20:04:34.226Z,19.48
2019-04-30T20:06:59.645Z,20.15
2019-04-30T20:09:29.168Z,18.62
2019-04-30T20:11:59.748Z,22.62
2019-04-30T20:14:29.328Z,20.32
2019-04-30T20:16:59.091Z,22.65
2019-04-30T20:19:30.621Z,20.72
2019-04-30T20:21:59.707Z,21.12
2019-04-30T20:24:29.538Z,22.40
2019-04-30T20:27:06.895Z,21.90
2019-04-30T20:29:29.708Z,23.67
2019-04-30T20:31:59.110Z,19.02
2019-04-30T20:34:29.310Z,25.52
2019-04-30T20:37:00.356Z,20.90
2019-04-30T20:39:31.913Z,22.48
2019-04-30T20:42:01.157Z,26.37
2019-04-30T20:44:31.187Z,28.60
2019-04-30T20:47:00.318Z,28.42
2019-04-30T20:49:30.487Z,25.72
2019-04-30T20:51:59.631Z,26.60
2019-04-30T20:54:29.171Z,22.77
2019-04-30T20:56:59.322Z,25.70
2019-04-30T20:59:29.026Z,19.55
2019-04-30T21:01:58.275Z,25.15
2019-04-30T21:04:27.438Z,23.92
2019-04-30T21:06:56.583Z,27.75
2019-04-30T21:09:25.727Z,23.77
2019-04-30T21:11:55.076Z,26.50
2019-04-30T21:14:24.593Z,24.52
2019-04-30T21:16:53.736Z,22.52
2019-04-30T21:19:22.872Z,24.15
2019-04-30T21:21:52.016Z,21.05
2019-04-30T21:24:21.152Z,26.20
2019-04-30T21:26:50.365Z,25.12
2019-04-30T21:29:19.605Z,24.90
2019-04-30T21:31:53.143Z,28.23
2019-04-30T21:34:23.939Z,22.10
2019-04-30T21:36:53.122Z,25.15
2019-04-30T21:39:22.300Z,22.22
2019-04-30T21:41:51.632Z,26.35
2019-04-30T21:44:20.905Z,23.05
2019-04-30T21:46:50.088Z,24.75
2019-04-30T21:49:19.267Z,24.37
2019-04-30T21:51:48.416Z,23.77
2019-04-30T21:54:17.599Z,22.73
2019-04-30T21:56:46.849Z,24.55
2019-04-30T21:59:24.272Z,28.90
2019-04-30T22:01:47.409Z,28.60
2019-04-30T22:04:16.971Z,25.68
2019-04-30T22:06:46.144Z,31.87
2019-04-30T22:09:15.876Z,28.45
2019-04-30T22:11:45.059Z,28.50
2019-04-30T22:14:14.243Z,27.22
2019-04-30T22:16:43.452Z,28.73
2019-04-30T22:19:12.636Z,31.17
2019-04-30T22:21:41.904Z,43.40
2019-04-30T22:24:11.244Z,28.57
2019-04-30T22:26:41.031Z,30.20
2019-04-30T22:29:10.207Z,28.10
2019-04-30T22:31:39.702Z,27.48
2019-04-30T22:34:08.932Z,29.20
2019-04-30T22:36:39.718Z,27.10
2019-04-30T22:39:22.472Z,23.85
2019-04-30T22:41:53.324Z,27.45
2019-04-30T22:44:22.507Z,28.77
2019-04-30T22:46:51.648Z,29.10
2019-04-30T22:49:20.792Z,24.18
2019-04-30T22:51:49.935Z,25.80
2019-04-30T22:54:19.243Z,24.15
2019-04-30T22:56:48.464Z,24.47
2019-04-30T22:59:17.641Z,29.77
2019-04-30T23:01:54.438Z,32.28
2019-04-30T23:04:27.936Z,33.18
2019-04-30T23:06:57.112Z,32.67
2019-04-30T23:09:26.404Z,33.02
2019-04-30T23:11:55.560Z,35.25
2019-04-30T23:14:24.697Z,33.18
2019-04-30T23:16:53.850Z,28.50
2019-04-30T23:19:22.990Z,33.35
2019-04-30T23:21:52.139Z,32.88
2019-04-30T23:24:21.445Z,30.20
2019-04-30T23:26:50.580Z,32.10
2019-04-30T23:29:19.789Z,30.08
2019-04-30T23:31:48.969Z,35.15
2019-04-30T23:34:18.441Z,27.60
2019-04-30T23:36:47.713Z,32.23
2019-04-30T23:39:16.852Z,34.00
2019-04-30T23:41:46.022Z,30.52
2019-04-30T23:44:15.197Z,28.85
2019-04-30T23:46:44.541Z,31.17
2019-04-30T23:49:13.708Z,28.83
2019-04-30T23:51:42.862Z,30.65
2019-04-30T23:54:12.013Z,24.60
2019-04-30T23:56:41.152Z,28.73
2019-04-30T23:59:10.321Z,26.65
